Crystal Symphony — C6MY5 — position and weather

sailwx.info

Track history (hours):
 
Tides and Currents Weather Stations Pressure Air Temp Water Temp Dewpoint Dewpoint Depression Visibility Wind Speed Wind Dir Waves Ship Positions

Crystal Symphony

Operator: Crystal Cruises

Last reported at 2015-Jul-29 19:33 UTC. Time now 2015-Jul-29 20:05 UTC.
Position N 55°11' E 013°48'.

Length 238 m; draft 8 m.

Type: Passenger vessel. MMSI: 309168000.

Date/timePositionNaut miles runAvg speedWind from/ knotsBaromVisibWave heightAir tempDewpointWater temp
2015-Jul-29 19:33N 55°11' E 013°48'2120.8
2015-Jul-29 18:33N 55°13' E 013°12'2020.0
2015-Jul-29 17:33N 55°18' E 012°39'1515.4
2015-Jul-29 16:34N 55°34' E 012°42'9 9.1
2015-Jul-29 15:34N 55°43' E 012°41'3 2.9
2015-Jul-29 14:33N 55°42' E 012°36'0 0.0
2015-Jul-29 13:33N 55°42' E 012°36'0 0.0
2015-Jul-29 12:33N 55°42' E 012°36'0 0.0
2015-Jul-29 11:32N 55°42' E 012°36'0 0.0
2015-Jul-29 10:32N 55°42' E 012°36'0 0.0
2015-Jul-29 09:32N 55°42' E 012°36'0 0.0
2015-Jul-29 08:31N 55°42' E 012°36'0 0.0
2015-Jul-29 07:33N 55°42' E 012°36'0 0.0
2015-Jul-29 06:33N 55°42' E 012°36'4 3.8
2015-Jul-29 05:33N 55°45' E 012°41'1414.3
2015-Jul-29 04:33N 55°59' E 012°40'1515.1
2015-Jul-29 03:33N 56°10' E 012°22'2017.6
2015-Jul-29 02:24N 56°26' E 011°57'1720.3
2015-Jul-29 01:33N 56°42' E 011°51'2120.8
2015-Jul-29 00:33N 57°02' E 011°40'2120.6
2015-Jul-28 23:33N 57°21' E 011°26'2019.9
2015-Jul-28 22:33N 57°39' E 011°09'2020.4
2015-Jul-28 21:33N 57°58' E 010°57'2019.9
2015-Jul-28 20:33N 58°17' E 010°45'2020.2
2015-Jul-28 19:33N 58°37' E 010°34'2120.8
2015-Jul-28 18:33N 58°58' E 010°35'1716.9
2015-Jul-28 17:33N 59°14' E 010°37'2020.1
2015-Jul-28 16:33N 59°34' E 010°38'1814.4
2015-Jul-28 15:17N 59°53' E 010°39'1 0.2
2015-Jul-28 06:12N 59°54' E 010°41'1113.9
2015-Jul-28 05:24N 59°43' E 010°35'1113.7
2015-Jul-28 04:33N 59°32' E 010°36'1817.8
2015-Jul-28 03:33N 59°14' E 010°38'1414.4
2015-Jul-28 02:34N 58°60' E 010°34'1312.8
2015-Jul-28 01:33N 58°50' E 010°19'23816.6
2015-Jul-27 11:16N 55°34' E 006°10'1317.2
2015-Jul-27 10:33N 55°23' E 005°59'26717.7
2015-Jul-26 19:28N 51°32' E 002°15'1718.8
2015-Jul-26 18:34N 51°19' E 001°57'1818.2
2015-Jul-26 17:34N 51°05' E 001°37'1110.8
2015-Jul-26 16:30N 51°07' E 001°19'0 0.0
2015-Jul-26 14:30N 51°07' E 001°19'0 0.0
2015-Jul-26 13:11N 51°07' E 001°19'0 0.0
2015-Jul-26 12:29N 51°07' E 001°19'0 0.0
2015-Jul-26 11:22N 51°07' E 001°19'0 0.0
2015-Jul-26 10:13N 51°07' E 001°19'0 0.0
2015-Jul-26 09:18N 51°07' E 001°19'0 0.0
2015-Jul-26 08:33N 51°07' E 001°19'0 0.0
2015-Jul-26 07:33N 51°07' E 001°19'0 0.0
2015-Jul-26 06:26N 51°07' E 001°19'0 0.0
2015-Jul-26 04:31N 51°07' E 001°19'0 0.0
2015-Jul-26 03:19N 51°07' E 001°19'2 2.0
2015-Jul-26 02:15N 51°07' E 001°23'811.2
2015-Jul-26 01:34N 51°08' E 001°35'1514.9
2015-Jul-26 00:33N 51°20' E 001°50'1515.5
2015-Jul-25 23:33N 51°32' E 002°05'45717.6
2015-Jul-24 21:33N 59°01' E 004°32'1919.3
2015-Jul-24 20:33N 59°20' E 004°38'1918.9
2015-Jul-24 19:32N 59°39' E 004°43'  
2015-Jul-22 02:33N 66°42' E 011°35'1613.9
2015-Jul-22 01:22N 66°55' E 012°00'7217.7
2015-Jul-21 21:19N 67°48' E 014°06'11 0.4
2015-Jul-20 18:23N 67°38' E 014°01'11 9.3
2015-Jul-20 17:14N 67°30' E 014°21'1015.2
2015-Jul-20 16:33N 67°20' E 014°20'3 2.6
2015-Jul-20 15:31N 67°17' E 014°24'0 0.0
2015-Jul-20 14:31N 67°17' E 014°24'0 0.0
2015-Jul-20 13:31N 67°17' E 014°24'0 0.0
2015-Jul-20 12:33N 67°17' E 014°24'0 0.0
2015-Jul-20 11:33N 67°17' E 014°24'0 0.0
2015-Jul-20 10:32N 67°17' E 014°24'0 0.0
2015-Jul-20 09:32N 67°17' E 014°24'0 0.0
2015-Jul-20 08:31N 67°17' E 014°24'0 0.0
2015-Jul-20 07:31N 67°17' E 014°24'0 0.0
2015-Jul-20 06:31N 67°17' E 014°24'1 0.9
2015-Jul-20 05:33N 67°17' E 014°22'10 9.8
2015-Jul-20 04:33N 67°27' E 014°25'  
Track history (hours):
 
Tides and Currents Weather Stations Pressure Air Temp Water Temp Dewpoint Dewpoint Depression Visibility Wind Speed Wind Dir Waves Ship Positions

Crystal Symphony

Operator: Crystal Cruises

Last reported at 2015-Jul-29 19:33 UTC. Time now 2015-Jul-29 20:05 UTC.
Position N 55°11' E 013°48'.

Length 238 m; draft 8 m.

Type: Passenger vessel. MMSI: 309168000.

Date/timePositionNaut miles runAvg speedWind from/ knotsBaromVisibWave heightAir tempDewpointWater temp
2015-Jul-29 19:33N 55°11' E 013°48'2120.8
2015-Jul-29 18:33N 55°13' E 013°12'2020.0
2015-Jul-29 17:33N 55°18' E 012°39'1515.4
2015-Jul-29 16:34N 55°34' E 012°42'9 9.1
2015-Jul-29 15:34N 55°43' E 012°41'3 2.9
2015-Jul-29 14:33N 55°42' E 012°36'0 0.0
2015-Jul-29 13:33N 55°42' E 012°36'0 0.0
2015-Jul-29 12:33N 55°42' E 012°36'0 0.0
2015-Jul-29 11:32N 55°42' E 012°36'0 0.0
2015-Jul-29 10:32N 55°42' E 012°36'0 0.0
2015-Jul-29 09:32N 55°42' E 012°36'0 0.0
2015-Jul-29 08:31N 55°42' E 012°36'0 0.0
2015-Jul-29 07:33N 55°42' E 012°36'0 0.0
2015-Jul-29 06:33N 55°42' E 012°36'4 3.8
2015-Jul-29 05:33N 55°45' E 012°41'1414.3
2015-Jul-29 04:33N 55°59' E 012°40'1515.1
2015-Jul-29 03:33N 56°10' E 012°22'2017.6
2015-Jul-29 02:24N 56°26' E 011°57'1720.3
2015-Jul-29 01:33N 56°42' E 011°51'2120.8
2015-Jul-29 00:33N 57°02' E 011°40'2120.6
2015-Jul-28 23:33N 57°21' E 011°26'2019.9
2015-Jul-28 22:33N 57°39' E 011°09'2020.4
2015-Jul-28 21:33N 57°58' E 010°57'2019.9
2015-Jul-28 20:33N 58°17' E 010°45'2020.2
2015-Jul-28 19:33N 58°37' E 010°34'2120.8
2015-Jul-28 18:33N 58°58' E 010°35'1716.9
2015-Jul-28 17:33N 59°14' E 010°37'2020.1
2015-Jul-28 16:33N 59°34' E 010°38'1814.4
2015-Jul-28 15:17N 59°53' E 010°39'1 0.2
2015-Jul-28 06:12N 59°54' E 010°41'1113.9
2015-Jul-28 05:24N 59°43' E 010°35'1113.7
2015-Jul-28 04:33N 59°32' E 010°36'1817.8
2015-Jul-28 03:33N 59°14' E 010°38'1414.4
2015-Jul-28 02:34N 58°60' E 010°34'1312.8
2015-Jul-28 01:33N 58°50' E 010°19'23816.6
2015-Jul-27 11:16N 55°34' E 006°10'1317.2
2015-Jul-27 10:33N 55°23' E 005°59'26717.7
2015-Jul-26 19:28N 51°32' E 002°15'1718.8
2015-Jul-26 18:34N 51°19' E 001°57'1818.2
2015-Jul-26 17:34N 51°05' E 001°37'1110.8
2015-Jul-26 16:30N 51°07' E 001°19'0 0.0
2015-Jul-26 14:30N 51°07' E 001°19'0 0.0
2015-Jul-26 13:11N 51°07' E 001°19'0 0.0
2015-Jul-26 12:29N 51°07' E 001°19'0 0.0
2015-Jul-26 11:22N 51°07' E 001°19'0 0.0
2015-Jul-26 10:13N 51°07' E 001°19'0 0.0
2015-Jul-26 09:18N 51°07' E 001°19'0 0.0
2015-Jul-26 08:33N 51°07' E 001°19'0 0.0
2015-Jul-26 07:33N 51°07' E 001°19'0 0.0
2015-Jul-26 06:26N 51°07' E 001°19'0 0.0
2015-Jul-26 04:31N 51°07' E 001°19'0 0.0
2015-Jul-26 03:19N 51°07' E 001°19'2 2.0
2015-Jul-26 02:15N 51°07' E 001°23'811.2
2015-Jul-26 01:34N 51°08' E 001°35'1514.9
2015-Jul-26 00:33N 51°20' E 001°50'1515.5
2015-Jul-25 23:33N 51°32' E 002°05'45717.6
2015-Jul-24 21:33N 59°01' E 004°32'1919.3
2015-Jul-24 20:33N 59°20' E 004°38'1918.9
2015-Jul-24 19:32N 59°39' E 004°43'  
2015-Jul-22 02:33N 66°42' E 011°35'1613.9
2015-Jul-22 01:22N 66°55' E 012°00'7217.7
2015-Jul-21 21:19N 67°48' E 014°06'11 0.4
2015-Jul-20 18:23N 67°38' E 014°01'11 9.3
2015-Jul-20 17:14N 67°30' E 014°21'1015.2
2015-Jul-20 16:33N 67°20' E 014°20'3 2.6
2015-Jul-20 15:31N 67°17' E 014°24'0 0.0
2015-Jul-20 14:31N 67°17' E 014°24'0 0.0
2015-Jul-20 13:31N 67°17' E 014°24'0 0.0
2015-Jul-20 12:33N 67°17' E 014°24'0 0.0
2015-Jul-20 11:33N 67°17' E 014°24'0 0.0
2015-Jul-20 10:32N 67°17' E 014°24'0 0.0
2015-Jul-20 09:32N 67°17' E 014°24'0 0.0
2015-Jul-20 08:31N 67°17' E 014°24'0 0.0
2015-Jul-20 07:31N 67°17' E 014°24'0 0.0
2015-Jul-20 06:31N 67°17' E 014°24'1 0.9
2015-Jul-20 05:33N 67°17' E 014°22'10 9.8
2015-Jul-20 04:33N 67°27' E 014°25'  

Dump ship's entire track history